sensor_id;sensor_type;location;lat;lon;timestamp;pressure;altitude;pressure_sealevel;temperature;humidity
60319;BME280;46163;52.306;5.634;2024-02-26T00:01:36;99921.97;;;3.44;100.00
60319;BME280;46163;52.306;5.634;2024-02-26T00:04:01;99967.69;;;3.65;100.00
60319;BME280;46163;52.306;5.634;2024-02-26T00:06:28;99964.88;;;3.67;100.00
60319;BME280;46163;52.306;5.634;2024-02-26T00:08:54;99969.22;;;3.60;100.00
60319;BME280;46163;52.306;5.634;2024-02-26T00:11:19;99966.56;;;3.60;100.00
60319;BME280;46163;52.306;5.634;2024-02-26T00:13:45;99964.41;;;3.63;100.00
60319;BME280;46163;52.306;5.634;2024-02-26T00:16:10;99972.28;;;3.63;100.00
60319;BME280;46163;52.306;5.634;2024-02-26T00:18:36;99968.22;;;3.61;100.00
60319;BME280;46163;52.306;5.634;2024-02-26T00:21:02;99967.03;;;3.63;100.00
60319;BME280;46163;52.306;5.634;2024-02-26T00:23:28;99967.63;;;3.74;100.00
60319;BME280;46163;52.306;5.634;2024-02-26T00:25:53;99966.41;;;3.61;100.00
60319;BME280;46163;52.306;5.634;2024-02-26T00:28:20;99960.88;;;3.71;100.00
60319;BME280;46163;52.306;5.634;2024-02-26T00:30:46;99902.00;;;3.34;100.00
60319;BME280;46163;52.306;5.634;2024-02-26T00:33:12;99973.47;;;3.61;100.00
60319;BME280;46163;52.306;5.634;2024-02-26T00:35:37;99970.91;;;3.53;100.00
60319;BME280;46163;52.306;5.634;2024-02-26T00:38:03;99977.53;;;3.49;100.00
60319;BME280;46163;52.306;5.634;2024-02-26T00:40:29;99975.75;;;3.41;100.00
60319;BME280;46163;52.306;5.634;2024-02-26T00:42:55;99978.56;;;3.39;100.00
60319;BME280;46163;52.306;5.634;2024-02-26T00:45:21;99979.84;;;3.44;100.00
60319;BME280;46163;52.306;5.634;2024-02-26T00:47:46;99966.06;;;3.42;100.00
60319;BME280;46163;52.306;5.634;2024-02-26T00:50:13;99977.75;;;3.39;100.00
60319;BME280;46163;52.306;5.634;2024-02-26T00:52:39;99984.47;;;3.42;100.00
60319;BME280;46163;52.306;5.634;2024-02-26T00:55:05;99955.88;;;3.38;100.00
60319;BME280;46163;52.306;5.634;2024-02-26T00:57:31;99986.28;;;3.41;100.00
60319;BME280;46163;52.306;5.634;2024-02-26T00:59:57;99986.16;;;3.34;100.00
60319;BME280;46163;52.306;5.634;2024-02-26T01:02:22;99981.25;;;3.31;100.00
60319;BME280;46163;52.306;5.634;2024-02-26T01:04:48;99961.00;;;3.09;100.00
60319;BME280;46163;52.306;5.634;2024-02-26T01:07:14;99980.59;;;3.29;100.00
60319;BME280;46163;52.306;5.634;2024-02-26T01:09:39;99955.44;;;3.04;100.00
60319;BME280;46163;52.306;5.634;2024-02-26T01:12:04;99985.78;;;3.15;100.00
60319;BME280;46163;52.306;5.634;2024-02-26T01:14:30;99952.22;;;2.94;100.00
60319;BME280;46163;52.306;5.634;2024-02-26T01:16:56;99985.13;;;3.12;100.00
60319;BME280;46163;52.306;5.634;2024-02-26T01:19:21;99990.25;;;3.14;100.00
60319;BME280;46163;52.306;5.634;2024-02-26T01:21:47;99984.03;;;3.07;100.00
60319;BME280;46163;52.306;5.634;2024-02-26T01:24:12;99988.94;;;3.10;100.00
60319;BME280;46163;52.306;5.634;2024-02-26T01:26:38;99975.81;;;3.02;100.00
60319;BME280;46163;52.306;5.634;2024-02-26T01:29:03;99989.47;;;3.05;100.00
60319;BME280;46163;52.306;5.634;2024-02-26T01:31:29;99948.16;;;2.83;100.00
60319;BME280;46163;52.306;5.634;2024-02-26T01:33:54;99990.91;;;3.08;100.00
60319;BME280;46163;52.306;5.634;2024-02-26T01:36:19;99991.41;;;3.03;100.00
60319;BME280;46163;52.306;5.634;2024-02-26T01:38:46;99989.41;;;3.14;100.00
60319;BME280;46163;52.306;5.634;2024-02-26T01:41:13;99988.78;;;3.03;100.00
60319;BME280;46163;52.306;5.634;2024-02-26T01:43:39;99990.13;;;2.99;100.00
60319;BME280;46163;52.306;5.634;2024-02-26T01:46:04;99990.31;;;2.98;100.00
60319;BME280;46163;52.306;5.634;2024-02-26T01:48:30;99983.44;;;2.97;100.00
60319;BME280;46163;52.306;5.634;2024-02-26T01:50:55;99934.78;;;2.70;100.00
60319;BME280;46163;52.306;5.634;2024-02-26T01:53:21;99983.56;;;2.95;100.00
60319;BME280;46163;52.306;5.634;2024-02-26T01:55:47;99976.19;;;2.99;100.00
60319;BME280;46163;52.306;5.634;2024-02-26T01:58:13;99986.03;;;3.05;100.00
60319;BME280;46163;52.306;5.634;2024-02-26T02:00:39;99984.66;;;3.09;100.00
60319;BME280;46163;52.306;5.634;2024-02-26T02:03:06;99986.66;;;3.07;100.00
60319;BME280;46163;52.306;5.634;2024-02-26T02:05:31;99990.09;;;3.07;100.00
60319;BME280;46163;52.306;5.634;2024-02-26T02:07:58;99979.81;;;2.98;100.00
60319;BME280;46163;52.306;5.634;2024-02-26T02:10:25;99998.50;;;3.03;100.00
60319;BME280;46163;52.306;5.634;2024-02-26T02:12:51;99998.91;;;3.23;100.00
60319;BME280;46163;52.306;5.634;2024-02-26T02:15:17;100000.72;;;3.22;100.00
60319;BME280;46163;52.306;5.634;2024-02-26T02:17:43;100001.81;;;3.28;100.00
60319;BME280;46163;52.306;5.634;2024-02-26T02:20:14;100004.47;;;3.20;100.00
60319;BME280;46163;52.306;5.634;2024-02-26T02:22:40;100002.00;;;3.26;100.00
60319;BME280;46163;52.306;5.634;2024-02-26T02:25:06;100005.44;;;3.27;100.00
60319;BME280;46163;52.306;5.634;2024-02-26T02:27:31;100007.25;;;3.26;100.00
60319;BME280;46163;52.306;5.634;2024-02-26T02:29:57;100013.84;;;3.22;100.00
60319;BME280;46163;52.306;5.634;2024-02-26T02:32:24;100011.09;;;3.16;100.00
60319;BME280;46163;52.306;5.634;2024-02-26T02:34:50;100013.91;;;3.14;100.00
60319;BME280;46163;52.306;5.634;2024-02-26T02:37:16;100014.31;;;3.26;100.00
60319;BME280;46163;52.306;5.634;2024-02-26T02:39:43;100015.50;;;3.23;100.00
60319;BME280;46163;52.306;5.634;2024-02-26T02:42:09;100024.03;;;3.25;100.00
60319;BME280;46163;52.306;5.634;2024-02-26T02:44:34;100020.25;;;3.20;100.00
60319;BME280;46163;52.306;5.634;2024-02-26T02:46:59;100006.94;;;3.21;100.00
60319;BME280;46163;52.306;5.634;2024-02-26T02:49:25;100017.72;;;3.34;100.00
60319;BME280;46163;52.306;5.634;2024-02-26T02:51:51;100022.84;;;3.59;100.00
60319;BME280;46163;52.306;5.634;2024-02-26T02:54:19;100021.38;;;3.56;100.00
60319;BME280;46163;52.306;5.634;2024-02-26T02:56:44;100022.06;;;3.73;100.00
60319;BME280;46163;52.306;5.634;2024-02-26T02:59:10;100023.63;;;3.36;100.00
60319;BME280;46163;52.306;5.634;2024-02-26T03:01:35;100020.88;;;3.53;100.00
60319;BME280;46163;52.306;5.634;2024-02-26T03:04:01;100018.22;;;3.61;100.00
60319;BME280;46163;52.306;5.634;2024-02-26T03:06:26;100028.72;;;3.61;100.00
60319;BME280;46163;52.306;5.634;2024-02-26T03:08:54;100023.97;;;3.33;100.00
60319;BME280;46163;52.306;5.634;2024-02-26T03:11:20;100024.38;;;3.45;100.00
60319;BME280;46163;52.306;5.634;2024-02-26T03:13:46;100044.22;;;3.56;100.00
60319;BME280;46163;52.306;5.634;2024-02-26T03:16:11;100047.16;;;3.61;100.00
60319;BME280;46163;52.306;5.634;2024-02-26T03:18:40;100041.25;;;3.59;100.00
60319;BME280;46163;52.306;5.634;2024-02-26T03:21:06;100047.78;;;3.63;100.00
60319;BME280;46163;52.306;5.634;2024-02-26T03:23:32;100050.19;;;3.50;100.00
60319;BME280;46163;52.306;5.634;2024-02-26T03:26:02;100062.06;;;3.37;100.00
60319;BME280;46163;52.306;5.634;2024-02-26T03:28:27;100068.50;;;3.35;100.00
60319;BME280;46163;52.306;5.634;2024-02-26T03:30:53;100064.31;;;3.18;100.00
60319;BME280;46163;52.306;5.634;2024-02-26T03:33:18;100062.41;;;2.40;93.62
60319;BME280;46163;52.306;5.634;2024-02-26T03:35:44;100080.56;;;2.82;100.00
60319;BME280;46163;52.306;5.634;2024-02-26T03:38:09;100079.31;;;2.45;98.64
60319;BME280;46163;52.306;5.634;2024-02-26T03:40:35;100066.22;;;2.37;99.92
60319;BME280;46163;52.306;5.634;2024-02-26T03:43:00;100077.16;;;2.57;100.00
60319;BME280;46163;52.306;5.634;2024-02-26T03:45:27;100078.69;;;2.03;97.19
60319;BME280;46163;52.306;5.634;2024-02-26T03:47:53;100071.84;;;1.27;90.14
60319;BME280;46163;52.306;5.634;2024-02-26T03:50:18;100063.41;;;1.74;100.00
60319;BME280;46163;52.306;5.634;2024-02-26T03:52:44;100073.44;;;2.99;100.00
60319;BME280;46163;52.306;5.634;2024-02-26T03:55:09;100060.66;;;2.96;100.00
60319;BME280;46163;52.306;5.634;2024-02-26T03:57:36;100085.16;;;3.27;100.00
60319;BME280;46163;52.306;5.634;2024-02-26T04:00:01;100076.00;;;3.46;100.00
60319;BME280;46163;52.306;5.634;2024-02-26T04:02:26;100085.84;;;3.52;100.00
60319;BME280;46163;52.306;5.634;2024-02-26T04:04:52;100094.81;;;3.66;100.00
60319;BME280;46163;52.306;5.634;2024-02-26T04:07:17;100084.84;;;3.53;100.00
60319;BME280;46163;52.306;5.634;2024-02-26T04:09:43;100093.22;;;3.57;100.00
60319;BME280;46163;52.306;5.634;2024-02-26T04:12:08;100092.00;;;3.67;100.00
60319;BME280;46163;52.306;5.634;2024-02-26T04:14:35;100099.28;;;3.65;100.00
60319;BME280;46163;52.306;5.634;2024-02-26T04:17:02;100099.53;;;3.71;100.00
60319;BME280;46163;52.306;5.634;2024-02-26T04:19:27;100096.41;;;3.75;100.00
60319;BME280;46163;52.306;5.634;2024-02-26T04:21:52;100102.03;;;3.64;100.00
60319;BME280;46163;52.306;5.634;2024-02-26T04:24:18;100097.44;;;3.66;100.00
60319;BME280;46163;52.306;5.634;2024-02-26T04:26:43;100108.66;;;3.60;100.00
60319;BME280;46163;52.306;5.634;2024-02-26T04:29:09;100104.16;;;3.68;100.00
60319;BME280;46163;52.306;5.634;2024-02-26T04:31:34;100089.06;;;3.62;100.00
60319;BME280;46163;52.306;5.634;2024-02-26T04:34:00;100117.97;;;3.39;99.38
60319;BME280;46163;52.306;5.634;2024-02-26T04:36:25;100121.84;;;3.52;100.00
60319;BME280;46163;52.306;5.634;2024-02-26T04:38:51;100119.25;;;3.44;100.00
60319;BME280;46163;52.306;5.634;2024-02-26T04:41:16;100129.81;;;2.96;98.92
60319;BME280;46163;52.306;5.634;2024-02-26T04:43:42;100131.97;;;2.68;99.55
60319;BME280;46163;52.306;5.634;2024-02-26T04:46:08;100127.41;;;2.62;99.70
60319;BME280;46163;52.306;5.634;2024-02-26T04:48:35;100135.28;;;2.54;100.00
60319;BME280;46163;52.306;5.634;2024-02-26T04:51:01;100142.53;;;2.28;96.63
60319;BME280;46163;52.306;5.634;2024-02-26T04:53:26;100136.59;;;2.01;98.28
60319;BME280;46163;52.306;5.634;2024-02-26T04:55:53;100146.84;;;0.68;94.91
60319;BME280;46163;52.306;5.634;2024-02-26T04:58:18;100138.34;;;0.92;100.00
60319;BME280;46163;52.306;5.634;2024-02-26T05:00:44;100147.03;;;1.77;100.00
60319;BME280;46163;52.306;5.634;2024-02-26T05:03:09;100145.28;;;2.67;100.00
60319;BME280;46163;52.306;5.634;2024-02-26T05:05:44;100144.66;;;3.20;100.00
60319;BME280;46163;52.306;5.634;2024-02-26T05:08:10;100142.13;;;3.43;100.00
60319;BME280;46163;52.306;5.634;2024-02-26T05:10:36;100133.91;;;3.38;100.00
60319;BME280;46163;52.306;5.634;2024-02-26T05:13:07;100144.63;;;3.28;100.00
60319;BME280;46163;52.306;5.634;2024-02-26T05:15:33;100142.94;;;3.44;100.00
60319;BME280;46163;52.306;5.634;2024-02-26T05:17:58;100144.25;;;3.48;100.00
60319;BME280;46163;52.306;5.634;2024-02-26T05:20:24;100115.41;;;3.23;100.00
60319;BME280;46163;52.306;5.634;2024-02-26T05:22:50;100121.78;;;3.29;100.00
60319;BME280;46163;52.306;5.634;2024-02-26T05:25:16;100150.44;;;3.24;100.00
60319;BME280;46163;52.306;5.634;2024-02-26T05:27:43;100151.47;;;3.06;100.00
60319;BME280;46163;52.306;5.634;2024-02-26T05:30:09;100145.28;;;2.59;98.43
60319;BME280;46163;52.306;5.634;2024-02-26T05:32:35;100156.28;;;2.05;92.42
60319;BME280;46163;52.306;5.634;2024-02-26T05:35:01;100145.75;;;1.30;83.92
60319;BME280;46163;52.306;5.634;2024-02-26T05:37:28;100158.22;;;1.95;100.00
60319;BME280;46163;52.306;5.634;2024-02-26T05:39:53;100158.25;;;2.68;100.00
60319;BME280;46163;52.306;5.634;2024-02-26T05:42:19;100160.00;;;3.08;100.00
60319;BME280;46163;52.306;5.634;2024-02-26T05:44:44;100161.66;;;3.49;100.00
60319;BME280;46163;52.306;5.634;2024-02-26T05:47:09;100165.13;;;3.49;100.00
60319;BME280;46163;52.306;5.634;2024-02-26T05:49:35;100171.09;;;3.74;100.00
60319;BME280;46163;52.306;5.634;2024-02-26T05:52:00;100175.13;;;3.54;100.00
60319;BME280;46163;52.306;5.634;2024-02-26T05:54:26;100184.63;;;3.63;100.00
60319;BME280;46163;52.306;5.634;2024-02-26T05:56:52;100181.94;;;3.71;100.00
60319;BME280;46163;52.306;5.634;2024-02-26T05:59:17;100177.50;;;3.72;100.00
60319;BME280;46163;52.306;5.634;2024-02-26T06:01:43;100194.03;;;3.57;100.00
60319;BME280;46163;52.306;5.634;2024-02-26T06:04:08;100180.06;;;3.57;100.00
60319;BME280;46163;52.306;5.634;2024-02-26T06:06:34;100190.34;;;3.27;98.27
60319;BME280;46163;52.306;5.634;2024-02-26T06:08:59;100198.34;;;2.70;95.84
60319;BME280;46163;52.306;5.634;2024-02-26T06:11:24;100203.06;;;2.99;100.00
60319;BME280;46163;52.306;5.634;2024-02-26T06:13:50;100203.84;;;2.02;90.73
60319;BME280;46163;52.306;5.634;2024-02-26T06:16:15;100204.84;;;0.73;92.22
60319;BME280;46163;52.306;5.634;2024-02-26T06:18:41;100230.16;;;0.11;100.00
60319;BME280;46163;52.306;5.634;2024-02-26T06:21:10;100225.06;;;1.66;100.00
60319;BME280;46163;52.306;5.634;2024-02-26T06:23:36;100221.97;;;2.46;100.00
60319;BME280;46163;52.306;5.634;2024-02-26T06:26:02;100218.47;;;3.10;100.00
60319;BME280;46163;52.306;5.634;2024-02-26T06:28:27;100211.38;;;3.27;100.00
60319;BME280;46163;52.306;5.634;2024-02-26T06:30:56;100216.94;;;3.40;100.00
60319;BME280;46163;52.306;5.634;2024-02-26T06:33:21;100220.53;;;3.48;100.00
60319;BME280;46163;52.306;5.634;2024-02-26T06:35:46;100223.19;;;3.48;100.00
60319;BME280;46163;52.306;5.634;2024-02-26T06:38:12;100228.56;;;3.54;100.00
60319;BME280;46163;52.306;5.634;2024-02-26T06:40:39;100238.63;;;3.43;100.00
60319;BME280;46163;52.306;5.634;2024-02-26T06:43:04;100246.19;;;3.37;100.00
60319;BME280;46163;52.306;5.634;2024-02-26T06:45:30;100239.81;;;3.32;100.00
60319;BME280;46163;52.306;5.634;2024-02-26T06:47:56;100237.69;;;3.27;100.00
60319;BME280;46163;52.306;5.634;2024-02-26T06:50:22;100248.25;;;2.62;98.16
60319;BME280;46163;52.306;5.634;2024-02-26T06:52:47;100241.69;;;2.66;100.00
60319;BME280;46163;52.306;5.634;2024-02-26T06:55:13;100210.75;;;2.11;99.83
60319;BME280;46163;52.306;5.634;2024-02-26T06:57:39;100255.47;;;1.85;91.35
60319;BME280;46163;52.306;5.634;2024-02-26T07:00:05;100251.22;;;0.98;96.74
60319;BME280;46163;52.306;5.634;2024-02-26T07:02:31;100228.50;;;0.81;100.00
60319;BME280;46163;52.306;5.634;2024-02-26T07:04:56;100233.03;;;2.07;100.00
60319;BME280;46163;52.306;5.634;2024-02-26T07:07:24;100227.88;;;2.72;100.00
60319;BME280;46163;52.306;5.634;2024-02-26T07:09:49;100252.47;;;3.20;100.00
60319;BME280;46163;52.306;5.634;2024-02-26T07:12:15;100273.28;;;3.54;100.00
60319;BME280;46163;52.306;5.634;2024-02-26T07:14:41;100280.31;;;3.70;100.00
60319;BME280;46163;52.306;5.634;2024-02-26T07:17:07;100269.81;;;3.62;100.00
60319;BME280;46163;52.306;5.634;2024-02-26T07:19:33;100285.59;;;3.62;100.00
60319;BME280;46163;52.306;5.634;2024-02-26T07:21:59;100244.25;;;3.39;100.00
60319;BME280;46163;52.306;5.634;2024-02-26T07:24:26;100285.72;;;3.77;100.00
60319;BME280;46163;52.306;5.634;2024-02-26T07:26:52;100293.22;;;3.49;100.00
60319;BME280;46163;52.306;5.634;2024-02-26T07:29:20;100291.81;;;3.77;100.00
60319;BME280;46163;52.306;5.634;2024-02-26T07:31:45;100295.63;;;3.66;100.00
60319;BME280;46163;52.306;5.634;2024-02-26T07:34:11;100271.41;;;3.16;100.00
60319;BME280;46163;52.306;5.634;2024-02-26T07:36:36;100297.88;;;2.90;100.00
60319;BME280;46163;52.306;5.634;2024-02-26T07:39:02;100296.22;;;2.97;100.00
60319;BME280;46163;52.306;5.634;2024-02-26T07:41:28;100303.91;;;2.58;97.91
60319;BME280;46163;52.306;5.634;2024-02-26T07:43:53;100306.81;;;1.88;94.64
60319;BME280;46163;52.306;5.634;2024-02-26T07:46:18;100312.63;;;2.08;100.00
60319;BME280;46163;52.306;5.634;2024-02-26T07:48:44;100314.91;;;2.77;100.00
60319;BME280;46163;52.306;5.634;2024-02-26T07:51:12;100260.06;;;2.99;100.00
60319;BME280;46163;52.306;5.634;2024-02-26T07:53:38;100278.56;;;3.46;100.00
60319;BME280;46163;52.306;5.634;2024-02-26T07:56:04;100316.16;;;3.79;100.00
60319;BME280;46163;52.306;5.634;2024-02-26T07:58:29;100304.81;;;3.71;100.00
60319;BME280;46163;52.306;5.634;2024-02-26T08:00:55;100314.34;;;3.72;100.00
60319;BME280;46163;52.306;5.634;2024-02-26T08:03:21;100329.00;;;3.82;100.00
60319;BME280;46163;52.306;5.634;2024-02-26T08:05:46;100321.09;;;3.82;100.00
60319;BME280;46163;52.306;5.634;2024-02-26T08:08:12;100317.59;;;3.82;100.00
60319;BME280;46163;52.306;5.634;2024-02-26T08:10:37;100320.75;;;3.85;100.00
60319;BME280;46163;52.306;5.634;2024-02-26T08:13:03;100325.72;;;3.64;100.00
60319;BME280;46163;52.306;5.634;2024-02-26T08:15:32;100324.09;;;3.55;100.00
60319;BME280;46163;52.306;5.634;2024-02-26T08:17:59;100331.28;;;3.77;100.00
60319;BME280;46163;52.306;5.634;2024-02-26T08:20:28;100327.59;;;3.31;100.00
60319;BME280;46163;52.306;5.634;2024-02-26T08:22:53;100344.84;;;3.42;100.00
60319;BME280;46163;52.306;5.634;2024-02-26T08:25:19;100350.59;;;2.80;93.46
60319;BME280;46163;52.306;5.634;2024-02-26T08:27:44;100348.44;;;2.92;100.00
60319;BME280;46163;52.306;5.634;2024-02-26T08:30:10;100351.22;;;2.74;100.00
60319;BME280;46163;52.306;5.634;2024-02-26T08:32:38;100350.03;;;2.60;98.11
60319;BME280;46163;52.306;5.634;2024-02-26T08:35:04;100350.66;;;1.44;93.83
60319;BME280;46163;52.306;5.634;2024-02-26T08:37:30;100367.69;;;1.04;100.00
60319;BME280;46163;52.306;5.634;2024-02-26T08:39:55;100361.09;;;2.21;100.00
60319;BME280;46163;52.306;5.634;2024-02-26T08:42:22;100355.38;;;3.09;100.00
60319;BME280;46163;52.306;5.634;2024-02-26T08:44:49;100363.25;;;3.58;100.00
60319;BME280;46163;52.306;5.634;2024-02-26T08:47:15;100362.72;;;3.71;100.00
60319;BME280;46163;52.306;5.634;2024-02-26T08:49:44;100358.09;;;3.81;100.00
60319;BME280;46163;52.306;5.634;2024-02-26T08:52:10;100368.09;;;4.02;100.00
60319;BME280;46163;52.306;5.634;2024-02-26T08:54:35;100333.31;;;3.59;100.00
60319;BME280;46163;52.306;5.634;2024-02-26T08:57:01;100377.81;;;4.01;100.00
60319;BME280;46163;52.306;5.634;2024-02-26T08:59:26;100377.91;;;4.16;100.00
60319;BME280;46163;52.306;5.634;2024-02-26T09:01:52;100388.13;;;4.11;100.00
60319;BME280;46163;52.306;5.634;2024-02-26T09:04:17;100384.84;;;4.09;100.00
60319;BME280;46163;52.306;5.634;2024-02-26T09:06:43;100390.69;;;4.35;100.00
60319;BME280;46163;52.306;5.634;2024-02-26T09:09:08;100386.78;;;4.15;100.00
60319;BME280;46163;52.306;5.634;2024-02-26T09:11:33;100396.81;;;4.28;100.00
60319;BME280;46163;52.306;5.634;2024-02-26T09:13:59;100399.78;;;4.16;100.00
60319;BME280;46163;52.306;5.634;2024-02-26T09:16:25;100406.91;;;4.00;100.00
60319;BME280;46163;52.306;5.634;2024-02-26T09:18:50;100410.91;;;3.79;100.00
60319;BME280;46163;52.306;5.634;2024-02-26T09:21:16;100413.88;;;3.35;100.00
60319;BME280;46163;52.306;5.634;2024-02-26T09:23:50;100415.88;;;3.42;100.00
60319;BME280;46163;52.306;5.634;2024-02-26T09:26:15;100413.41;;;3.40;100.00
60319;BME280;46163;52.306;5.634;2024-02-26T09:28:42;100421.28;;;3.24;97.76
60319;BME280;46163;52.306;5.634;2024-02-26T09:31:07;100426.97;;;2.95;100.00
60319;BME280;46163;52.306;5.634;2024-02-26T09:33:33;100358.06;;;2.00;100.00
60319;BME280;46163;52.306;5.634;2024-02-26T09:35:59;100426.47;;;2.41;98.93
60319;BME280;46163;52.306;5.634;2024-02-26T09:38:29;100426.72;;;2.21;100.00
60319;BME280;46163;52.306;5.634;2024-02-26T09:40:57;100403.53;;;2.09;100.00
60319;BME280;46163;52.306;5.634;2024-02-26T09:43:25;100434.78;;;1.50;98.62
60319;BME280;46163;52.306;5.634;2024-02-26T09:45:55;100439.53;;;1.98;100.00
60319;BME280;46163;52.306;5.634;2024-02-26T09:48:22;100441.09;;;2.94;100.00
60319;BME280;46163;52.306;5.634;2024-02-26T09:50:49;100446.78;;;3.64;100.00
60319;BME280;46163;52.306;5.634;2024-02-26T09:53:14;100443.63;;;4.09;100.00
60319;BME280;46163;52.306;5.634;2024-02-26T09:55:40;100444.72;;;4.23;100.00
60319;BME280;46163;52.306;5.634;2024-02-26T09:58:06;100460.78;;;4.52;100.00
60319;BME280;46163;52.306;5.634;2024-02-26T10:00:37;100466.72;;;4.46;100.00
60319;BME280;46163;52.306;5.634;2024-02-26T10:03:04;100468.38;;;4.39;100.00
60319;BME280;46163;52.306;5.634;2024-02-26T10:05:31;100469.84;;;4.42;100.00
60319;BME280;46163;52.306;5.634;2024-02-26T10:07:57;100471.72;;;4.17;100.00
60319;BME280;46163;52.306;5.634;2024-02-26T10:10:23;100473.84;;;4.30;100.00
60319;BME280;46163;52.306;5.634;2024-02-26T10:12:49;100474.66;;;4.38;100.00
60319;BME280;46163;52.306;5.634;2024-02-26T10:15:15;100469.03;;;4.41;100.00
60319;BME280;46163;52.306;5.634;2024-02-26T10:17:41;100488.59;;;4.55;100.00
60319;BME280;46163;52.306;5.634;2024-02-26T10:22:40;100498.16;;;4.56;100.00
60319;BME280;46163;52.306;5.634;2024-02-26T10:25:06;100492.84;;;4.64;100.00
60319;BME280;46163;52.306;5.634;2024-02-26T10:27:33;100495.31;;;4.66;100.00
60319;BME280;46163;52.306;5.634;2024-02-26T10:30:02;100502.59;;;4.56;100.00
60319;BME280;46163;52.306;5.634;2024-02-26T10:32:28;100502.94;;;4.52;100.00
60319;BME280;46163;52.306;5.634;2024-02-26T10:34:57;100503.06;;;4.59;100.00
60319;BME280;46163;52.306;5.634;2024-02-26T10:37:23;100512.06;;;4.81;100.00
60319;BME280;46163;52.306;5.634;2024-02-26T10:39:50;100511.56;;;4.77;100.00
60319;BME280;46163;52.306;5.634;2024-02-26T10:42:15;100517.84;;;4.76;100.00
60319;BME280;46163;52.306;5.634;2024-02-26T10:44:43;100522.44;;;4.82;100.00
60319;BME280;46163;52.306;5.634;2024-02-26T10:47:10;100518.69;;;4.69;100.00
60319;BME280;46163;52.306;5.634;2024-02-26T10:49:35;100532.34;;;4.72;100.00
60319;BME280;46163;52.306;5.634;2024-02-26T10:52:01;100533.66;;;4.76;100.00
60319;BME280;46163;52.306;5.634;2024-02-26T10:54:29;100539.22;;;4.90;100.00
60319;BME280;46163;52.306;5.634;2024-02-26T10:56:57;100528.84;;;4.88;100.00
60319;BME280;46163;52.306;5.634;2024-02-26T10:59:24;100547.91;;;4.98;100.00
60319;BME280;46163;52.306;5.634;2024-02-26T11:01:50;100548.31;;;4.87;100.00
60319;BME280;46163;52.306;5.634;2024-02-26T11:04:16;100537.91;;;4.86;100.00
60319;BME280;46163;52.306;5.634;2024-02-26T11:06:44;100553.84;;;5.00;100.00
60319;BME280;46163;52.306;5.634;2024-02-26T11:09:12;100561.22;;;5.13;100.00
60319;BME280;46163;52.306;5.634;2024-02-26T11:11:38;100529.56;;;4.66;100.00
60319;BME280;46163;52.306;5.634;2024-02-26T11:14:06;100562.38;;;5.10;100.00
60319;BME280;46163;52.306;5.634;2024-02-26T11:16:34;100568.34;;;5.04;100.00
60319;BME280;46163;52.306;5.634;2024-02-26T11:19:00;100566.81;;;5.10;100.00
60319;BME280;46163;52.306;5.634;2024-02-26T11:21:27;100572.13;;;5.02;100.00
60319;BME280;46163;52.306;5.634;2024-02-26T11:24:02;100576.38;;;5.11;100.00
60319;BME280;46163;52.306;5.634;2024-02-26T11:26:28;100537.59;;;4.80;100.00
60319;BME280;46163;52.306;5.634;2024-02-26T11:28:54;100574.75;;;5.10;100.00
60319;BME280;46163;52.306;5.634;2024-02-26T11:31:19;100570.16;;;5.04;100.00
60319;BME280;46163;52.306;5.634;2024-02-26T11:33:52;100580.38;;;5.07;100.00
60319;BME280;46163;52.306;5.634;2024-02-26T11:36:19;100552.94;;;4.77;100.00
60319;BME280;46163;52.306;5.634;2024-02-26T11:38:46;100587.47;;;4.98;100.00
60319;BME280;46163;52.306;5.634;2024-02-26T11:41:15;100588.44;;;5.05;100.00
60319;BME280;46163;52.306;5.634;2024-02-26T11:43:53;100594.00;;;5.19;100.00
60319;BME280;46163;52.306;5.634;2024-02-26T11:46:39;100581.50;;;5.13;100.00
60319;BME280;46163;52.306;5.634;2024-02-26T11:51:51;100597.25;;;5.29;100.00
60319;BME280;46163;52.306;5.634;2024-02-26T11:54:53;100601.22;;;5.25;100.00
60319;BME280;46163;52.306;5.634;2024-02-26T11:57:39;100609.41;;;5.38;100.00
60319;BME280;46163;52.306;5.634;2024-02-26T12:00:11;100609.78;;;5.27;100.00
60319;BME280;46163;52.306;5.634;2024-02-26T12:02:52;100605.94;;;5.37;100.00
60319;BME280;46163;52.306;5.634;2024-02-26T12:05:26;100582.94;;;5.23;100.00
60319;BME280;46163;52.306;5.634;2024-02-26T12:08:01;100610.56;;;5.35;98.28
60319;BME280;46163;52.306;5.634;2024-02-26T12:13:12;100620.31;;;5.35;99.67
60319;BME280;46163;52.306;5.634;2024-02-26T12:15:39;100607.31;;;5.25;100.00
60319;BME280;46163;52.306;5.634;2024-02-26T12:18:07;100628.22;;;5.35;100.00
60319;BME280;46163;52.306;5.634;2024-02-26T12:20:34;100621.97;;;5.28;99.90
60319;BME280;46163;52.306;5.634;2024-02-26T12:23:02;100619.03;;;5.31;100.00
60319;BME280;46163;52.306;5.634;2024-02-26T12:25:28;100635.00;;;5.29;100.00
60319;BME280;46163;52.306;5.634;2024-02-26T12:27:55;100631.88;;;5.34;100.00
60319;BME280;46163;52.306;5.634;2024-02-26T12:30:21;100627.22;;;5.36;100.00
60319;BME280;46163;52.306;5.634;2024-02-26T12:32:48;100634.03;;;5.30;100.00
60319;BME280;46163;52.306;5.634;2024-02-26T12:35:15;100638.03;;;5.18;100.00
60319;BME280;46163;52.306;5.634;2024-02-26T12:37:42;100651.66;;;5.30;100.00
60319;BME280;46163;52.306;5.634;2024-02-26T12:40:09;100645.06;;;5.34;99.25
60319;BME280;46163;52.306;5.634;2024-02-26T12:42:36;100650.03;;;5.21;100.00
60319;BME280;46163;52.306;5.634;2024-02-26T12:45:06;100649.91;;;5.22;99.90
60319;BME280;46163;52.306;5.634;2024-02-26T12:47:38;100651.97;;;5.35;99.35
60319;BME280;46163;52.306;5.634;2024-02-26T12:50:06;100657.53;;;5.48;98.52
60319;BME280;46163;52.306;5.634;2024-02-26T12:52:37;100649.56;;;5.17;99.86
60319;BME280;46163;52.306;5.634;2024-02-26T12:55:05;100672.84;;;5.05;100.00
60319;BME280;46163;52.306;5.634;2024-02-26T12:57:33;100669.88;;;5.08;100.00